Time;durP1;ratioP1;P1;durP2;ratioP2;P2;SDS_P1;SDS_P2;PMS_P1;PMS_P2;Temp;Humidity;BMP_temperature;BMP_pressure;BME280_temperature;BME280_humidity;BME280_pressure;Samples;Min_cycle;Max_cycle;Signal;HPM_P1;HPM_P2
2023/07/26 00:01:31;;;;;;;;;;;;;;;18.01;53.23;100139.97;4992708;28;6811;-69
2023/07/26 00:03:58;;;;;;;;;;;;;;;18.01;53.41;100137.38;5001981;28;7164;-69
2023/07/26 00:06:25;;;;;;;;;;;;;;;18.02;53.03;100140.00;4999657;28;6871;-69
2023/07/26 00:08:51;;;;;;;;;;;;;;;18.04;53.25;100140.03;4998786;28;7222;-70
2023/07/26 00:11:16;;;;;;;;;;;;;;;18.05;53.28;100141.75;4994888;28;6970;-71
2023/07/26 00:13:43;;;;;;;;;;;;;;;18.04;52.84;100140.91;4994414;28;7208;-69
2023/07/26 00:16:09;;;;;;;;;;;;;;;18.07;53.25;100136.63;4995321;28;6788;-69
2023/07/26 00:18:34;;;;;;;;;;;;;;;18.08;53.32;100135.75;4997940;28;6776;-70
2023/07/26 00:21:00;;;;;;;;;;;;;;;18.09;53.47;100130.59;4997465;28;6930;-70
2023/07/26 00:23:25;;;;;;;;;;;;;;;18.09;53.50;100137.50;5001934;28;6965;-70
2023/07/26 00:25:51;;;;;;;;;;;;;;;18.08;53.87;100136.66;4995581;28;7148;-71
2023/07/26 00:28:16;;;;;;;;;;;;;;;18.06;53.74;100133.16;4997785;28;6788;-71
2023/07/26 00:30:42;;;;;;;;;;;;;;;18.06;53.72;100132.28;5013584;28;6784;-69
2023/07/26 00:33:07;;;;;;;;;;;;;;;18.04;53.59;100130.53;5010500;28;7121;-71
2023/07/26 00:35:36;;;;;;;;;;;;;;;18.04;53.60;100134.84;5012340;28;6911;-70
2023/07/26 00:38:01;;;;;;;;;;;;;;;18.03;53.76;100133.06;4990817;28;7117;-69
2023/07/26 00:40:27;;;;;;;;;;;;;;;18.03;53.74;100135.66;4998907;28;7043;-70
2023/07/26 00:42:52;;;;;;;;;;;;;;;18.00;53.57;100133.91;4995926;28;7171;-71
2023/07/26 00:45:17;;;;;;;;;;;;;;;17.98;54.12;100127.81;4998792;28;7105;-69
2023/07/26 00:47:43;;;;;;;;;;;;;;;17.98;54.42;100130.41;5001547;28;6792;-70
2023/07/26 00:50:09;;;;;;;;;;;;;;;17.99;53.97;100131.31;4997821;28;7328;-69
2023/07/26 00:52:35;;;;;;;;;;;;;;;17.98;54.07;100137.34;4999894;28;6835;-70
2023/07/26 00:55:02;;;;;;;;;;;;;;;17.98;54.63;100142.53;5013286;28;7193;-69
2023/07/26 00:57:29;;;;;;;;;;;;;;;17.97;54.44;100135.59;4995069;28;7068;-69
2023/07/26 00:59:56;;;;;;;;;;;;;;;17.97;54.67;100133.88;5012243;28;7094;-69
2023/07/26 01:02:21;;;;;;;;;;;;;;;17.99;54.56;100139.94;4995898;28;6960;-69
2023/07/26 01:04:47;;;;;;;;;;;;;;;18.00;54.35;100133.03;4998986;28;6784;-70
2023/07/26 01:07:23;;;;;;;;;;;;;;;18.00;54.61;100133.03;5000738;28;6803;-70
2023/07/26 01:10:08;;;;;;;;;;;;;;;18.00;53.96;100130.44;4994060;28;6882;-70
2023/07/26 01:12:41;;;;;;;;;;;;;;;17.99;54.21;100132.16;4995134;28;7095;-70
2023/07/26 01:15:13;;;;;;;;;;;;;;;17.99;54.75;100128.72;4994220;28;6832;-70
2023/07/26 01:17:38;;;;;;;;;;;;;;;17.99;54.34;100132.16;4986042;28;7000;-70
2023/07/26 01:20:04;;;;;;;;;;;;;;;17.99;53.89;100128.72;4991325;28;8396;-70
2023/07/26 01:22:30;;;;;;;;;;;;;;;17.98;54.23;100134.75;5000459;28;6930;-70
2023/07/26 01:24:56;;;;;;;;;;;;;;;17.97;54.32;100128.69;4995130;28;7267;-71
2023/07/26 01:27:22;;;;;;;;;;;;;;;17.96;54.27;100128.66;4977522;28;7079;-70
2023/07/26 01:29:51;;;;;;;;;;;;;;;17.96;54.59;100132.13;5010556;28;7172;-69
2023/07/26 01:32:20;;;;;;;;;;;;;;;17.93;53.94;100126.03;4983129;28;7178;-69
2023/07/26 01:34:46;;;;;;;;;;;;;;;17.91;53.98;100129.47;4992357;28;8062;-69
2023/07/26 01:37:12;;;;;;;;;;;;;;;17.89;54.84;100128.59;5011621;28;6851;-70
2023/07/26 01:39:39;;;;;;;;;;;;;;;17.88;54.38;100118.19;4999685;28;7343;-70
2023/07/26 01:42:04;;;;;;;;;;;;;;;17.87;54.15;100119.94;5012311;28;7988;-69
2023/07/26 01:44:40;;;;;;;;;;;;;;;17.86;54.40;100120.75;5011430;28;6801;-70
2023/07/26 01:47:05;;;;;;;;;;;;;;;17.85;54.37;100128.53;5009986;28;7198;-69
2023/07/26 01:49:31;;;;;;;;;;;;;;;17.85;54.54;100118.16;4997729;28;6836;-69
2023/07/26 01:51:56;;;;;;;;;;;;;;;17.85;54.52;100119.00;4976760;28;7006;-70
2023/07/26 01:54:22;;;;;;;;;;;;;;;17.84;54.51;100121.59;5000039;28;6796;-69
2023/07/26 01:56:47;;;;;;;;;;;;;;;17.84;55.05;100122.44;5012418;28;6795;-70
2023/07/26 01:59:13;;;;;;;;;;;;;;;17.84;54.48;100127.63;4996995;28;7024;-69
2023/07/26 02:01:38;;;;;;;;;;;;;;;17.83;54.77;100125.91;5007430;28;6788;-69
2023/07/26 02:04:04;;;;;;;;;;;;;;;17.84;54.71;100124.19;4998199;28;6780;-69
2023/07/26 02:06:29;;;;;;;;;;;;;;;17.83;54.66;100127.63;4992282;28;7045;-67
2023/07/26 02:08:55;;;;;;;;;;;;;;;17.84;54.82;100130.22;4994678;28;7133;-69
2023/07/26 02:11:20;;;;;;;;;;;;;;;17.84;54.63;100132.81;5012255;28;6811;-71
2023/07/26 02:13:46;;;;;;;;;;;;;;;17.84;54.93;100130.22;4992774;28;6783;-71
2023/07/26 02:16:11;;;;;;;;;;;;;;;17.84;54.89;100126.78;5005236;28;8145;-71
2023/07/26 02:18:37;;;;;;;;;;;;;;;17.84;54.87;100122.44;5011558;28;7068;-72
2023/07/26 02:21:02;;;;;;;;;;;;;;;17.84;54.71;100127.63;5009025;28;6969;-71
2023/07/26 02:23:28;;;;;;;;;;;;;;;17.82;54.75;100118.97;4994158;28;8365;-72
2023/07/26 02:25:53;;;;;;;;;;;;;;;17.81;54.64;100119.81;5010472;28;7129;-72
2023/07/26 02:28:18;;;;;;;;;;;;;;;17.83;54.78;100122.44;4995699;28;6780;-70
2023/07/26 02:30:44;;;;;;;;;;;;;;;17.81;54.51;100122.41;4993549;28;6965;-74
2023/07/26 02:33:09;;;;;;;;;;;;;;;17.79;54.70;100118.94;4998909;28;7060;-73
2023/07/26 02:35:35;;;;;;;;;;;;;;;17.78;54.61;100119.78;4993279;28;6820;-75
2023/07/26 02:38:00;;;;;;;;;;;;;;;17.77;54.92;100125.84;4997560;28;6795;-74
2023/07/26 02:40:26;;;;;;;;;;;;;;;17.75;54.92;100122.31;4996601;28;7197;-74
2023/07/26 02:42:51;;;;;;;;;;;;;;;17.74;55.07;100125.78;4999537;28;6815;-75
2023/07/26 02:45:17;;;;;;;;;;;;;;;17.72;54.85;100117.09;4986197;28;7174;-76
2023/07/26 02:47:42;;;;;;;;;;;;;;;17.72;55.09;100117.09;5013494;28;6779;-74
2023/07/26 02:50:08;;;;;;;;;;;;;;;17.72;55.24;100123.19;5000550;28;7189;-73
2023/07/26 02:52:33;;;;;;;;;;;;;;;17.72;55.36;100118.00;5015474;28;6822;-74
2023/07/26 02:54:59;;;;;;;;;;;;;;;17.73;54.51;100118.84;5016696;28;6852;-74
2023/07/26 02:57:24;;;;;;;;;;;;;;;17.74;54.89;100118.88;4991206;28;6962;-73
2023/07/26 02:59:50;;;;;;;;;;;;;;;17.74;55.04;100126.66;4994828;28;7222;-73
2023/07/26 03:02:15;;;;;;;;;;;;;;;17.74;54.86;100115.41;5016654;28;7288;-74
2023/07/26 03:04:41;;;;;;;;;;;;;;;17.73;54.71;100117.13;5023658;28;6772;-74
2023/07/26 03:07:06;;;;;;;;;;;;;;;17.73;55.12;100118.84;5011718;28;7201;-73
2023/07/26 03:09:32;;;;;;;;;;;;;;;17.71;55.25;100121.41;5002798;28;7021;-73
2023/07/26 03:11:57;;;;;;;;;;;;;;;17.70;54.71;100131.78;5021046;28;7163;-73
2023/07/26 03:14:23;;;;;;;;;;;;;;;17.68;54.71;100130.88;5011835;28;7210;-72
2023/07/26 03:16:48;;;;;;;;;;;;;;;17.66;54.89;100135.16;5006434;28;6919;-74
2023/07/26 03:19:14;;;;;;;;;;;;;;;17.62;54.88;100132.53;5023898;28;8546;-73
2023/07/26 03:21:39;;;;;;;;;;;;;;;17.61;55.15;100140.25;5021067;28;6875;-73
2023/07/26 03:24:05;;;;;;;;;;;;;;;17.57;54.46;100136.75;5016745;28;6788;-74
2023/07/26 03:26:30;;;;;;;;;;;;;;;17.53;55.01;100141.88;5007301;28;7247;-74
2023/07/26 03:28:56;;;;;;;;;;;;;;;17.47;54.70;100143.53;5019204;28;6934;-73
2023/07/26 03:31:21;;;;;;;;;;;;;;;17.44;54.90;100142.59;5006084;28;6784;-73
2023/07/26 03:33:47;;;;;;;;;;;;;;;17.39;55.06;100139.09;4980774;28;7427;-73
2023/07/26 03:36:12;;;;;;;;;;;;;;;17.35;55.31;100149.38;5007159;28;6833;-73
2023/07/26 03:38:38;;;;;;;;;;;;;;;17.30;54.84;100151.03;5022100;28;6783;-73
2023/07/26 03:41:03;;;;;;;;;;;;;;;17.24;54.91;100148.34;5013221;28;6791;-72
2023/07/26 03:43:29;;;;;;;;;;;;;;;17.17;55.13;100157.72;5005560;28;6772;-72
2023/07/26 03:45:54;;;;;;;;;;;;;;;17.10;55.38;100152.44;4985134;28;7663;-73
2023/07/26 03:48:19;;;;;;;;;;;;;;;17.04;55.22;100155.75;5005844;28;6968;-74
2023/07/26 03:50:45;;;;;;;;;;;;;;;16.99;55.76;100152.19;4985255;28;7001;-74
2023/07/26 03:53:10;;;;;;;;;;;;;;;16.92;55.77;100146.03;5011459;28;6775;-74
2023/07/26 03:55:36;;;;;;;;;;;;;;;16.89;55.86;100145.97;5015594;28;6859;-73
2023/07/26 03:58:02;;;;;;;;;;;;;;;16.85;55.67;100147.66;5003517;28;6875;-73
2023/07/26 04:00:28;;;;;;;;;;;;;;;16.83;55.79;100148.47;4995613;28;7252;-73
2023/07/26 04:02:53;;;;;;;;;;;;;;;16.81;56.21;100145.84;4986815;28;6950;-73
2023/07/26 04:05:18;;;;;;;;;;;;;;;16.78;56.20;100145.78;4998256;28;6980;-73
2023/07/26 04:07:44;;;;;;;;;;;;;;;16.76;56.07;100148.34;4996024;28;7006;-74
2023/07/26 04:10:10;;;;;;;;;;;;;;;16.74;56.04;100150.03;4994427;28;6800;-73
2023/07/26 04:12:35;;;;;;;;;;;;;;;16.72;56.22;100149.13;4998755;28;6993;-73
2023/07/26 04:15:01;;;;;;;;;;;;;;;16.70;56.31;100145.63;5004309;28;6821;-73
2023/07/26 04:17:27;;;;;;;;;;;;;;;16.69;56.63;100151.66;5017595;28;6776;-73
2023/07/26 04:19:52;;;;;;;;;;;;;;;16.68;56.61;100147.31;5020784;28;6811;-73
2023/07/26 04:22:18;;;;;;;;;;;;;;;16.67;57.07;100153.34;5006433;28;6772;-74
2023/07/26 04:24:44;;;;;;;;;;;;;;;16.66;56.67;100147.31;5015707;28;6925;-73
2023/07/26 04:27:10;;;;;;;;;;;;;;;16.68;57.10;100165.44;5015740;28;6808;-72
2023/07/26 04:29:36;;;;;;;;;;;;;;;16.67;56.62;100150.75;4985098;28;7454;-73
2023/07/26 04:32:01;;;;;;;;;;;;;;;16.65;56.86;100158.47;4995274;28;7456;-73
2023/07/26 04:34:26;;;;;;;;;;;;;;;16.65;57.05;100162.78;5005104;28;6796;-73
2023/07/26 04:36:52;;;;;;;;;;;;;;;16.64;57.05;100155.88;4999677;28;6795;-72
2023/07/26 04:39:17;;;;;;;;;;;;;;;16.63;57.42;100159.31;5012840;28;7432;-73
2023/07/26 04:41:43;;;;;;;;;;;;;;;16.63;57.04;100162.75;5019855;28;7188;-73
2023/07/26 04:44:09;;;;;;;;;;;;;;;16.61;57.08;100160.97;5018588;28;6787;-73
2023/07/26 04:46:34;;;;;;;;;;;;;;;16.60;57.24;100159.22;4997391;28;7232;-73
2023/07/26 04:49:00;;;;;;;;;;;;;;;16.60;57.56;100161.81;4983360;28;1067262;-73
2023/07/26 04:51:25;;;;;;;;;;;;;;;16.62;57.14;100160.16;5008110;28;7013;-73
2023/07/26 04:53:51;;;;;;;;;;;;;;;16.64;57.61;100161.06;5008161;28;6783;-73
2023/07/26 04:56:16;;;;;;;;;;;;;;;16.66;57.26;100165.41;5022236;28;7006;-72
2023/07/26 04:58:42;;;;;;;;;;;;;;;16.70;57.44;100166.31;5024676;28;7318;-73
2023/07/26 05:01:07;;;;;;;;;;;;;;;16.71;57.71;100169.81;5006850;28;6787;-73
2023/07/26 05:03:34;;;;;;;;;;;;;;;16.73;57.33;100170.69;5026085;28;6934;-73
2023/07/26 05:06:00;;;;;;;;;;;;;;;16.77;57.62;100169.94;5023930;28;6803;-73
2023/07/26 05:08:26;;;;;;;;;;;;;;;16.80;57.95;100173.44;4995234;28;7166;-72
2023/07/26 05:10:51;;;;;;;;;;;;;;;16.84;57.47;100176.09;5006059;28;7039;-73
2023/07/26 05:13:18;;;;;;;;;;;;;;;16.87;57.59;100176.13;5002470;28;6967;-74
2023/07/26 05:15:43;;;;;;;;;;;;;;;16.88;57.84;100172.69;4999700;28;7282;-75
2023/07/26 05:18:09;;;;;;;;;;;;;;;16.90;57.44;100176.19;5017493;28;6784;-74
2023/07/26 05:20:34;;;;;;;;;;;;;;;16.96;57.62;100176.31;5013452;28;6772;-75
2023/07/26 05:23:00;;;;;;;;;;;;;;;17.03;58.15;100177.31;5002822;28;6776;-75
2023/07/26 05:25:25;;;;;;;;;;;;;;;17.12;58.04;100176.63;5011112;28;6852;-73
2023/07/26 05:27:51;;;;;;;;;;;;;;;17.20;57.84;100181.06;4997686;28;7137;-73
2023/07/26 05:30:19;;;;;;;;;;;;;;;17.31;57.82;100173.50;4983955;28;6947;-72
2023/07/26 05:32:45;;;;;;;;;;;;;;;17.52;58.68;100164.31;4994399;28;6891;-72
2023/07/26 05:35:13;;;;;;;;;;;;;;;17.79;58.49;100175.97;5000764;28;6982;-74
2023/07/26 05:37:39;;;;;;;;;;;;;;;18.08;58.08;100170.34;5017842;28;7016;-75
2023/07/26 05:40:06;;;;;;;;;;;;;;;18.37;57.86;100168.97;5005937;28;6987;-74
2023/07/26 05:42:35;;;;;;;;;;;;;;;18.65;57.29;100159.81;5014414;28;8505;-72
2023/07/26 05:45:01;;;;;;;;;;;;;;;18.87;56.78;100165.22;4990001;28;7153;-75
2023/07/26 05:47:27;;;;;;;;;;;;;;;19.00;56.27;100169.69;5013449;28;6804;-73
2023/07/26 05:49:52;;;;;;;;;;;;;;;19.08;55.93;100162.00;4999220;28;7054;-74
2023/07/26 05:52:18;;;;;;;;;;;;;;;19.08;54.74;100164.59;5002247;28;6863;-74
2023/07/26 05:54:43;;;;;;;;;;;;;;;19.04;54.44;100172.34;4996480;28;6776;-74
2023/07/26 05:57:09;;;;;;;;;;;;;;;18.99;54.99;100165.31;4999581;28;6866;-74
2023/07/26 05:59:34;;;;;;;;;;;;;;;18.96;54.84;100174.81;5009306;28;7048;-73
2023/07/26 06:02:00;;;;;;;;;;;;;;;18.93;54.58;100170.47;4996029;28;6950;-74
2023/07/26 06:04:28;;;;;;;;;;;;;;;18.93;54.84;100173.06;5011930;28;6792;-75
2023/07/26 06:06:54;;;;;;;;;;;;;;;18.96;55.24;100174.81;5013612;28;6886;-74
2023/07/26 06:09:21;;;;;;;;;;;;;;;19.05;54.77;100171.47;4993741;28;7405;-74
2023/07/26 06:11:46;;;;;;;;;;;;;;;19.13;55.59;100169.81;5011932;28;6883;-74
2023/07/26 06:14:12;;;;;;;;;;;;;;;19.23;55.23;100171.66;4984843;28;7173;-72
2023/07/26 06:16:37;;;;;;;;;;;;;;;19.31;54.72;100176.91;5011189;28;6856;-75
2023/07/26 06:19:03;;;;;;;;;;;;;;;19.43;55.22;100170.94;4998055;28;6780;-74
2023/07/26 06:21:28;;;;;;;;;;;;;;;19.54;55.40;100178.78;5015665;28;6780;-74
2023/07/26 06:23:54;;;;;;;;;;;;;;;19.63;54.70;100175.41;4997117;28;6788;-74
2023/07/26 06:26:20;;;;;;;;;;;;;;;19.73;54.86;100178.94;5012803;28;6837;-75
2023/07/26 06:28:46;;;;;;;;;;;;;;;19.80;54.73;100179.00;4993829;28;6800;-75
2023/07/26 06:31:12;;;;;;;;;;;;;;;19.91;54.79;100183.41;4993812;28;6798;-72
2023/07/26 06:33:37;;;;;;;;;;;;;;;20.02;55.20;100186.97;5012398;28;7237;-73
2023/07/26 06:36:03;;;;;;;;;;;;;;;20.12;54.99;100180.94;5002288;28;6946;-73
2023/07/26 06:38:28;;;;;;;;;;;;;;;20.21;54.47;100192.25;5003325;28;6847;-75
2023/07/26 06:40:54;;;;;;;;;;;;;;;20.29;53.90;100189.69;5011900;28;6815;-72
2023/07/26 06:43:19;;;;;;;;;;;;;;;20.33;53.88;100194.91;5000709;28;6792;-72
2023/07/26 06:45:46;;;;;;;;;;;;;;;20.40;54.24;100199.28;5012728;28;6852;-71
2023/07/26 06:48:11;;;;;;;;;;;;;;;20.56;54.30;100201.94;4995824;28;6815;-73
2023/07/26 06:50:41;;;;;;;;;;;;;;;20.70;54.24;100199.38;5015598;28;6791;-73
2023/07/26 06:53:07;;;;;;;;;;;;;;;20.83;53.91;100197.72;5000986;28;7441;-73
2023/07/26 06:55:33;;;;;;;;;;;;;;;20.91;53.62;100196.00;4996618;28;6971;-73
2023/07/26 06:57:59;;;;;;;;;;;;;;;20.93;52.99;100190.81;4985703;28;7006;-73
2023/07/26 07:00:24;;;;;;;;;;;;;;;20.96;53.33;100193.41;5002272;28;7224;-73
2023/07/26 07:02:59;;;;;;;;;;;;;;;21.00;53.18;100194.28;4980868;28;6964;-73
2023/07/26 07:05:27;;;;;;;;;;;;;;;21.07;53.38;100201.25;4997719;28;6800;-73
2023/07/26 07:07:52;;;;;;;;;;;;;;;21.18;53.69;100204.72;5001579;28;7226;-72
2023/07/26 07:10:18;;;;;;;;;;;;;;;21.25;52.79;100205.59;5001257;28;7041;-74
2023/07/26 07:12:44;;;;;;;;;;;;;;;21.31;53.04;100203.00;5000945;28;6863;-72
2023/07/26 07:15:10;;;;;;;;;;;;;;;21.48;53.28;100202.13;5003079;28;6784;-74
2023/07/26 07:17:35;;;;;;;;;;;;;;;21.65;53.06;100204.75;5000557;28;7164;-73
2023/07/26 07:20:01;;;;;;;;;;;;;;;21.79;52.56;100196.94;4997959;28;6784;-73
2023/07/26 07:22:27;;;;;;;;;;;;;;;21.93;52.53;100204.72;4998750;28;8536;-73
2023/07/26 07:24:53;;;;;;;;;;;;;;;22.08;53.09;100211.66;4999144;28;6926;-73
2023/07/26 07:27:21;;;;;;;;;;;;;;;22.31;53.35;100203.75;4995723;28;6835;-74
2023/07/26 07:29:47;;;;;;;;;;;;;;;22.58;53.15;100207.13;5002536;28;6792;-73
2023/07/26 07:32:13;;;;;;;;;;;;;;;22.85;52.05;100207.88;5016421;28;6808;-74
2023/07/26 07:34:38;;;;;;;;;;;;;;;23.10;51.65;100212.06;4995971;28;6796;-74
2023/07/26 07:37:04;;;;;;;;;;;;;;;23.41;51.48;100217.09;5013896;28;6788;-73
2023/07/26 07:39:30;;;;;;;;;;;;;;;23.79;51.56;100212.41;5011371;28;6800;-72
2023/07/26 07:41:55;;;;;;;;;;;;;;;24.23;50.83;100215.47;5010851;28;6855;-74
2023/07/26 07:44:21;;;;;;;;;;;;;;;24.59;49.98;100209.78;4998971;28;6792;-74
2023/07/26 07:46:46;;;;;;;;;;;;;;;24.84;48.78;100207.72;5018514;28;7097;-74
2023/07/26 07:49:12;;;;;;;;;;;;;;;24.94;47.73;100200.59;5010992;28;6796;-75
2023/07/26 07:51:38;;;;;;;;;;;;;;;24.92;46.59;100207.63;4998889;28;6953;-74
2023/07/26 07:54:04;;;;;;;;;;;;;;;24.80;46.42;100217.38;5017089;28;7094;-74
2023/07/26 07:56:29;;;;;;;;;;;;;;;24.64;45.92;100221.09;4999754;28;8474;-73
2023/07/26 07:58:55;;;;;;;;;;;;;;;24.44;46.31;100219.59;5012929;28;6795;-74
2023/07/26 08:01:20;;;;;;;;;;;;;;;24.33;46.52;100218.84;5004935;28;6808;-73
2023/07/26 08:03:46;;;;;;;;;;;;;;;24.35;46.71;100223.16;5002186;28;6871;-74
2023/07/26 08:06:12;;;;;;;;;;;;;;;24.48;46.60;100217.78;4984181;28;6999;-73
2023/07/26 08:08:39;;;;;;;;;;;;;;;24.59;46.64;100225.50;5015745;28;6913;-74
2023/07/26 08:11:04;;;;;;;;;;;;;;;24.65;46.35;100228.06;5016385;28;7196;-73
2023/07/26 08:13:30;;;;;;;;;;;;;;;24.76;46.04;100226.16;5004160;28;6788;-74
2023/07/26 08:15:59;;;;;;;;;;;;;;;24.87;45.93;100217.31;5017222;28;7219;-72
2023/07/26 08:18:24;;;;;;;;;;;;;;;25.08;46.25;100218.75;5006129;28;6808;-74
2023/07/26 08:20:50;;;;;;;;;;;;;;;25.48;46.43;100219.84;5015562;28;6899;-73
2023/07/26 08:23:15;;;;;;;;;;;;;;;25.87;45.51;100216.59;4998901;28;8045;-74
2023/07/26 08:25:41;;;;;;;;;;;;;;;26.14;44.07;100223.06;5019168;28;6971;-74
2023/07/26 08:28:07;;;;;;;;;;;;;;;26.20;43.37;100222.13;5004026;28;7261;-74
2023/07/26 08:30:32;;;;;;;;;;;;;;;26.18;42.91;100219.50;5013659;28;7168;-74
2023/07/26 08:32:58;;;;;;;;;;;;;;;26.16;43.26;100223.06;4996284;28;6970;-73
2023/07/26 08:35:23;;;;;;;;;;;;;;;26.18;42.98;100226.50;5001231;28;6788;-73
2023/07/26 08:37:49;;;;;;;;;;;;;;;26.22;42.54;100216.84;5012442;28;6999;-73
2023/07/26 08:40:15;;;;;;;;;;;;;;;26.24;41.93;100217.66;5016044;28;7164;-73
2023/07/26 08:42:40;;;;;;;;;;;;;;;26.25;41.92;100229.91;5001334;28;6780;-74
2023/07/26 08:45:06;;;;;;;;;;;;;;;26.21;42.14;100229.09;4999681;28;7035;-72
2023/07/26 08:47:35;;;;;;;;;;;;;;;26.19;42.24;100234.41;5000487;28;6779;-74
2023/07/26 08:50:00;;;;;;;;;;;;;;;26.24;42.12;100230.81;5004805;28;6986;-71
2023/07/26 08:52:27;;;;;;;;;;;;;;;26.25;41.41;100229.91;5001363;28;7007;-72
2023/07/26 08:54:52;;;;;;;;;;;;;;;26.22;41.47;100232.59;4997897;28;6963;-71
2023/07/26 08:57:18;;;;;;;;;;;;;;;26.24;41.53;100233.44;4999855;28;6819;-71
2023/07/26 08:59:44;;;;;;;;;;;;;;;26.34;41.94;100233.22;4996078;28;6851;-73
2023/07/26 09:02:11;;;;;;;;;;;;;;;26.52;41.25;100235.50;4997998;28;6971;-72
2023/07/26 09:04:36;;;;;;;;;;;;;;;26.61;41.12;100227.41;5003329;28;6843;-72
2023/07/26 09:07:06;;;;;;;;;;;;;;;26.65;40.81;100221.19;4999641;28;7008;-73
2023/07/26 09:09:35;;;;;;;;;;;;;;;26.55;40.41;100217.03;4996675;28;7130;-72
2023/07/26 09:12:02;;;;;;;;;;;;;;;26.43;40.92;100223.44;4997826;28;6819;-72
2023/07/26 09:14:29;;;;;;;;;;;;;;;26.35;40.97;100220.94;5012453;28;6989;-73
2023/07/26 09:16:58;;;;;;;;;;;;;;;26.67;41.56;100219.41;5003404;28;6812;-71
2023/07/26 09:19:32;;;;;;;;;;;;;;;27.46;42.47;100211.47;4999973;28;7111;-72
2023/07/26 09:22:00;;;;;;;;;;;;;;;28.56;41.89;100205.00;5000552;28;6950;-73
2023/07/26 09:24:37;;;;;;;;;;;;;;;29.71;38.97;100197.84;4985431;28;6901;-73
2023/07/26 09:27:04;;;;;;;;;;;;;;;30.27;37.32;100190.56;4999681;28;7277;-74
2023/07/26 09:29:30;;;;;;;;;;;;;;;30.21;35.41;100189.91;5001469;28;6879;-71
2023/07/26 09:31:56;;;;;;;;;;;;;;;29.75;35.24;100175.69;4995218;28;6862;-74
2023/07/26 09:34:22;;;;;;;;;;;;;;;29.19;35.29;100183.72;5017276;28;6780;-73
2023/07/26 09:36:52;;;;;;;;;;;;;;;28.62;35.88;100185.50;5000355;28;7462;-71
2023/07/26 09:39:19;;;;;;;;;;;;;;;28.09;36.57;100190.50;5014573;28;6831;-71
2023/07/26 09:41:45;;;;;;;;;;;;;;;27.65;36.87;100193.44;5001571;28;7171;-72
2023/07/26 09:44:17;;;;;;;;;;;;;;;27.31;37.46;100187.25;5000818;28;7041;-72
2023/07/26 09:46:48;;;;;;;;;;;;;;;27.50;37.50;100181.53;5002809;28;7005;-72
2023/07/26 09:49:14;;;;;;;;;;;;;;;27.89;36.93;100192.81;5000492;28;7472;-72
2023/07/26 09:51:41;;;;;;;;;;;;;;;28.30;36.53;100185.56;5004629;28;6941;-71
2023/07/26 09:54:09;;;;;;;;;;;;;;;29.02;36.33;100181.66;4986265;28;6994;-71
2023/07/26 09:56:34;;;;;;;;;;;;;;;29.85;34.92;100186.81;5017649;28;7072;-72
2023/07/26 09:59:00;;;;;;;;;;;;;;;30.05;34.02;100186.97;5003002;28;6787;-72
2023/07/26 10:01:29;;;;;;;;;;;;;;;30.02;33.65;100200.25;4987617;28;6836;-72
2023/07/26 10:03:55;;;;;;;;;;;;;;;30.16;34.51;100191.00;5017834;28;6867;-72
2023/07/26 10:06:23;;;;;;;;;;;;;;;30.49;33.37;100191.50;5001153;28;6788;-72
2023/07/26 10:08:49;;;;;;;;;;;;;;;30.32;32.46;100186.81;5008661;28;6954;-72
2023/07/26 10:11:15;;;;;;;;;;;;;;;29.72;32.56;100199.59;5004422;28;6784;-72
2023/07/26 10:13:45;;;;;;;;;;;;;;;28.99;32.27;100199.34;5017269;28;6795;-72
2023/07/26 10:16:11;;;;;;;;;;;;;;;28.38;33.70;100194.09;5017120;28;6803;-72
2023/07/26 10:18:36;;;;;;;;;;;;;;;28.25;34.24;100190.97;4992520;28;7277;-72
2023/07/26 10:21:04;;;;;;;;;;;;;;;28.05;34.51;100194.13;5002461;28;7237;-72
2023/07/26 10:23:31;;;;;;;;;;;;;;;27.81;34.58;100196.53;4983871;28;6835;-72
2023/07/26 10:26:00;;;;;;;;;;;;;;;27.70;35.35;100203.84;5000681;28;6892;-72
2023/07/26 10:28:26;;;;;;;;;;;;;;;27.68;35.83;100203.03;4998765;28;6804;-72
2023/07/26 10:30:53;;;;;;;;;;;;;;;27.58;35.93;100205.91;5000496;28;7283;-72
2023/07/26 10:33:18;;;;;;;;;;;;;;;27.34;35.79;100212.63;5005129;28;6808;-72
2023/07/26 10:35:45;;;;;;;;;;;;;;;26.81;36.32;100211.22;4999347;28;7027;-72
2023/07/26 10:38:15;;;;;;;;;;;;;;;26.22;38.04;100214.22;4998999;28;6827;-73
2023/07/26 10:40:41;;;;;;;;;;;;;;;25.66;38.94;100216.09;5011893;28;6954;-72
2023/07/26 10:43:19;;;;;;;;;;;;;;;25.27;39.86;100215.84;4998150;28;6795;-72
2023/07/26 10:45:46;;;;;;;;;;;;;;;25.07;41.31;100215.25;4986438;28;6884;-72
2023/07/26 10:48:13;;;;;;;;;;;;;;;25.07;42.02;100207.38;4994031;28;6997;-72
2023/07/26 10:50:39;;;;;;;;;;;;;;;25.04;41.80;100212.69;4981349;28;7458;-72
2023/07/26 10:53:30;;;;;;;;;;;;;;;24.99;42.45;100209.25;5006259;28;7211;-73
2023/07/26 10:56:07;;;;;;;;;;;;;;;25.29;43.59;100207.03;4989822;28;6868;-72
2023/07/26 10:58:33;;;;;;;;;;;;;;;25.82;43.22;100215.81;5004230;28;6867;-73
2023/07/26 11:01:37;;;;;;;;;;;;;;;26.59;42.62;100208.19;5017613;28;6875;-73
2023/07/26 11:04:10;;;;;;;;;;;;;;;27.64;41.53;100201.41;5006018;28;7241;-72
2023/07/26 11:06:57;;;;;;;;;;;;;;;28.45;39.91;100192.16;4992329;28;7027;-73
2023/07/26 11:09:33;;;;;;;;;;;;;;;28.77;39.29;100186.78;4993693;28;6883;-72
2023/07/26 11:12:09;;;;;;;;;;;;;;;29.05;39.34;100196.47;4986488;28;6995;-72
2023/07/26 11:14:35;;;;;;;;;;;;;;;29.76;37.91;100188.84;5004333;28;6995;-72
2023/07/26 11:17:09;;;;;;;;;;;;;;;30.48;36.32;100180.97;5006442;28;6868;-72
2023/07/26 11:19:46;;;;;;;;;;;;;;;31.35;35.35;100201.34;5012107;28;7032;-72
2023/07/26 11:22:12;;;;;;;;;;;;;;;32.00;33.59;100195.06;5010869;28;6804;-72
2023/07/26 11:24:37;;;;;;;;;;;;;;;32.52;32.48;100201.56;5031145;28;7697;-72
2023/07/26 11:27:05;;;;;;;;;;;;;;;33.01;30.69;100184.25;5029414;28;6776;-72
2023/07/26 11:29:31;;;;;;;;;;;;;;;33.39;30.18;100186.75;5022200;28;7196;-72
2023/07/26 11:31:57;;;;;;;;;;;;;;;33.74;29.68;100180.56;5002317;28;7250;-73
2023/07/26 11:34:22;;;;;;;;;;;;;;;34.08;29.25;100178.78;4999969;28;7782;-72
2023/07/26 11:36:48;;;;;;;;;;;;;;;34.34;28.72;100173.81;5017815;28;7284;-72
2023/07/26 11:39:25;;;;;;;;;;;;;;;34.42;28.08;100171.59;5004180;28;6807;-72
2023/07/26 11:41:53;;;;;;;;;;;;;;;34.53;28.27;100173.69;4997731;28;6981;-72
2023/07/26 11:44:22;;;;;;;;;;;;;;;34.14;27.90;100175.78;5001568;28;6995;-72
2023/07/26 11:46:48;;;;;;;;;;;;;;;33.72;28.64;100182.47;4999618;28;6867;-72
2023/07/26 11:49:20;;;;;;;;;;;;;;;33.15;28.46;100188.84;4996471;28;6808;-72
2023/07/26 11:51:45;;;;;;;;;;;;;;;32.47;29.24;100175.28;5008363;28;6995;-72
2023/07/26 11:54:11;;;;;;;;;;;;;;;31.90;28.62;100181.38;5017980;28;6884;-72
2023/07/26 11:56:37;;;;;;;;;;;;;;;31.33;29.28;100183.81;5023447;28;6859;-72
2023/07/26 11:59:03;;;;;;;;;;;;;;;30.61;30.14;100190.16;5004857;28;6953;-72
2023/07/26 12:01:30;;;;;;;;;;;;;;;29.85;30.87;100197.38;4987669;28;6998;-72
2023/07/26 12:03:56;;;;;;;;;;;;;;;29.19;32.16;100196.91;4999136;28;6970;-72
2023/07/26 12:06:29;;;;;;;;;;;;;;;28.67;32.64;100199.41;5019507;28;7186;-72
2023/07/26 12:09:02;;;;;;;;;;;;;;;28.35;32.52;100215.25;5008297;28;6815;-72
2023/07/26 12:11:27;;;;;;;;;;;;;;;28.22;33.51;100211.28;5002754;28;6997;-72
2023/07/26 12:13:55;;;;;;;;;;;;;;;28.65;33.26;100199.44;5019456;28;7094;-71
2023/07/26 12:16:27;;;;;;;;;;;;;;;29.34;32.75;100202.56;5017015;28;6959;-72
2023/07/26 12:18:56;;;;;;;;;;;;;;;29.64;31.90;100205.09;5003017;28;6799;-72
2023/07/26 12:21:24;;;;;;;;;;;;;;;29.47;31.85;100205.69;5004122;28;6868;-72
2023/07/26 12:23:52;;;;;;;;;;;;;;;29.05;31.59;100205.28;5016803;28;7185;-72
2023/07/26 12:26:23;;;;;;;;;;;;;;;28.66;31.88;100216.97;5003805;28;7011;-72
2023/07/26 12:28:53;;;;;;;;;;;;;;;28.37;32.02;100217.88;5002208;28;6851;-72
2023/07/26 12:31:27;;;;;;;;;;;;;;;28.27;32.96;100204.09;5005404;28;6922;-72
2023/07/26 12:33:57;;;;;;;;;;;;;;;28.31;33.33;100207.50;5024564;28;6882;-72
2023/07/26 12:36:31;;;;;;;;;;;;;;;28.49;32.48;100201.69;5001094;28;7405;-72
2023/07/26 12:38:59;;;;;;;;;;;;;;;28.65;32.40;100206.50;5004260;28;6931;-73
2023/07/26 12:41:25;;;;;;;;;;;;;;;28.50;31.61;100210.47;5005012;28;6832;-72
2023/07/26 12:43:53;;;;;;;;;;;;;;;28.17;32.32;100213.13;5017119;28;7252;-72